createdAt,value
2023-05-06T00:01:38.903Z,103143.00
2023-05-06T00:04:07.274Z,103151.25
2023-05-06T00:06:36.846Z,103157.47
2023-05-06T00:09:05.239Z,103152.09
2023-05-06T00:11:33.360Z,103155.13
2023-05-06T00:14:01.286Z,103163.97
2023-05-06T00:16:29.464Z,103151.81
2023-05-06T00:18:57.605Z,103167.16
2023-05-06T00:21:25.563Z,103162.56
2023-05-06T00:23:55.030Z,103162.41
2023-05-06T00:26:23.020Z,103169.72
2023-05-06T00:28:50.921Z,103171.00
2023-05-06T00:31:18.939Z,103173.00
2023-05-06T00:33:46.902Z,103175.16
2023-05-06T00:36:14.916Z,103173.84
2023-05-06T00:38:42.940Z,103160.13
2023-05-06T00:41:12.263Z,103177.44
2023-05-06T00:43:40.901Z,103177.81
2023-05-06T00:46:11.587Z,103173.50
2023-05-06T00:48:40.156Z,103181.06
2023-05-06T00:51:08.519Z,103177.03
2023-05-06T00:53:37.096Z,103085.84
2023-05-06T00:56:05.569Z,103148.03
2023-05-06T00:58:37.651Z,103182.44
2023-05-06T01:01:06.136Z,103182.19
2023-05-06T01:03:34.342Z,103178.72
2023-05-06T01:06:12.663Z,103166.28
2023-05-06T01:08:56.409Z,103175.59
2023-05-06T01:11:30.832Z,103174.53
2023-05-06T01:14:04.636Z,103180.03
2023-05-06T01:16:36.631Z,103173.09
2023-05-06T01:19:07.358Z,103182.25
2023-05-06T01:21:36.903Z,103184.78
2023-05-06T01:24:07.070Z,103185.34
2023-05-06T01:26:34.953Z,103184.00
2023-05-06T01:29:04.011Z,103193.47
2023-05-06T01:31:39.280Z,103155.50
2023-05-06T01:34:14.020Z,103189.81
2023-05-06T01:36:51.214Z,103188.88
2023-05-06T01:39:25.542Z,103194.25
2023-05-06T01:41:57.475Z,103189.75
2023-05-06T01:44:28.386Z,103191.09
2023-05-06T01:46:57.520Z,103192.34
2023-05-06T01:49:27.583Z,103195.91
2023-05-06T01:51:57.991Z,103200.06
2023-05-06T01:54:27.549Z,103195.38
2023-05-06T01:56:55.619Z,103148.66
2023-05-06T01:59:23.607Z,103171.78
2023-05-06T02:01:52.058Z,103183.44
2023-05-06T02:04:20.137Z,103189.09
2023-05-06T02:06:48.050Z,103189.09
2023-05-06T02:09:17.311Z,103191.34
2023-05-06T02:11:46.775Z,103188.69
2023-05-06T02:14:14.728Z,103193.03
2023-05-06T02:16:42.769Z,103190.31
2023-05-06T02:19:11.179Z,103183.03
2023-05-06T02:21:39.104Z,103187.13
2023-05-06T02:24:07.600Z,103185.31
2023-05-06T02:26:35.786Z,103190.53
2023-05-06T02:29:05.116Z,103191.75
2023-05-06T02:31:33.196Z,103185.47
2023-05-06T02:34:01.440Z,103181.09
2023-05-06T02:36:29.690Z,103187.63
2023-05-06T02:38:57.799Z,103186.88
2023-05-06T02:41:26.011Z,103147.09
2023-05-06T02:43:53.964Z,103187.09
2023-05-06T02:46:23.403Z,103186.91
2023-05-06T02:48:51.566Z,103187.13
2023-05-06T02:51:19.465Z,103186.88
2023-05-06T02:53:47.404Z,103186.44
2023-05-06T02:56:15.428Z,103180.25
2023-05-06T02:58:43.405Z,103187.06
2023-05-06T03:01:11.380Z,103190.44
2023-05-06T03:03:40.885Z,103151.66
2023-05-06T03:06:08.834Z,103190.16
2023-05-06T03:08:36.850Z,103169.69
2023-05-06T03:11:06.757Z,103190.78
2023-05-06T03:13:35.882Z,103192.13
2023-05-06T03:16:04.163Z,103190.28
2023-05-06T03:18:32.293Z,103194.47
2023-05-06T03:21:01.742Z,103117.38
2023-05-06T03:23:29.643Z,103194.88
2023-05-06T03:25:57.649Z,103196.88
2023-05-06T03:28:25.648Z,103187.78
2023-05-06T03:30:53.662Z,103196.94
2023-05-06T03:33:21.792Z,103193.16
2023-05-06T03:35:49.708Z,103142.19
2023-05-06T03:38:19.077Z,103192.72
2023-05-06T03:40:47.145Z,103192.47
2023-05-06T03:43:15.182Z,103191.22
2023-05-06T03:45:43.193Z,103164.09
2023-05-06T03:48:11.241Z,103198.78
2023-05-06T03:50:39.642Z,103203.16
2023-05-06T03:53:07.624Z,103200.63
2023-05-06T03:55:37.227Z,103195.50
2023-05-06T03:58:05.984Z,103208.59
2023-05-06T04:00:33.929Z,103144.91
2023-05-06T04:03:02.239Z,103207.13
2023-05-06T04:05:30.311Z,103214.47
2023-05-06T04:07:58.285Z,103212.00
2023-05-06T04:10:26.369Z,103206.59
2023-05-06T04:12:55.706Z,103207.06
2023-05-06T04:15:24.669Z,103215.91
2023-05-06T04:17:54.748Z,103164.44
2023-05-06T04:20:22.854Z,103212.44
2023-05-06T04:22:51.076Z,103210.81
2023-05-06T04:25:19.701Z,103217.78
2023-05-06T04:27:47.930Z,103207.56
2023-05-06T04:30:17.472Z,103210.66
2023-05-06T04:32:45.508Z,103202.22
2023-05-06T04:35:13.551Z,103207.66
2023-05-06T04:37:42.005Z,103207.91
2023-05-06T04:40:11.874Z,103205.63
2023-05-06T04:42:39.832Z,103177.47
2023-05-06T04:45:09.601Z,103197.25
2023-05-06T04:47:41.032Z,103205.75
2023-05-06T04:50:12.566Z,103209.22
2023-05-06T04:52:41.005Z,103206.13
2023-05-06T04:55:11.339Z,103203.31
2023-05-06T04:57:39.698Z,103190.78
2023-05-06T05:00:10.698Z,103186.44
2023-05-06T05:02:40.390Z,103196.56
2023-05-06T05:05:09.277Z,103190.28
2023-05-06T05:07:37.641Z,103205.78
2023-05-06T05:10:06.631Z,103198.88
2023-05-06T05:12:34.675Z,103193.94
2023-05-06T05:15:03.319Z,103188.69
2023-05-06T05:17:32.349Z,103159.38
2023-05-06T05:20:01.844Z,103187.38
2023-05-06T05:22:29.842Z,103188.50
2023-05-06T05:24:57.881Z,103175.75
2023-05-06T05:27:25.975Z,103197.41
2023-05-06T05:29:54.119Z,103208.72
2023-05-06T05:32:22.177Z,103208.47
2023-05-06T05:34:50.528Z,103195.44
2023-05-06T05:37:20.056Z,103199.28
2023-05-06T05:39:48.034Z,103208.22
2023-05-06T05:42:16.213Z,103204.94
2023-05-06T05:44:44.250Z,103199.09
2023-05-06T05:47:12.325Z,103199.88
2023-05-06T05:49:40.856Z,103192.09
2023-05-06T05:52:09.929Z,103202.06
2023-05-06T05:54:39.362Z,103207.88
2023-05-06T05:57:07.430Z,103211.00
2023-05-06T05:59:35.526Z,103204.00
2023-05-06T06:02:03.519Z,103206.88
2023-05-06T06:04:31.759Z,103207.09
2023-05-06T06:07:01.906Z,103212.25
2023-05-06T06:09:29.786Z,103208.97
2023-05-06T06:11:59.239Z,103214.41
2023-05-06T06:14:27.236Z,103212.06
2023-05-06T06:16:55.198Z,103213.16
2023-05-06T06:19:23.177Z,103208.66
2023-05-06T06:21:51.143Z,103206.13
2023-05-06T06:24:19.115Z,103204.25
2023-05-06T06:26:47.230Z,103202.72
2023-05-06T06:29:16.701Z,103197.91
2023-05-06T06:31:44.717Z,103196.19
2023-05-06T06:34:13.121Z,103203.34
2023-05-06T06:36:45.303Z,103203.34
2023-05-06T06:39:13.512Z,103197.91
2023-05-06T06:41:41.800Z,103196.47
2023-05-06T06:44:10.012Z,103205.00
2023-05-06T06:46:39.338Z,103200.94
2023-05-06T06:49:07.229Z,103198.34
2023-05-06T06:51:35.530Z,103197.56
2023-05-06T06:54:03.519Z,103195.06
2023-05-06T06:56:31.957Z,103189.00
2023-05-06T06:59:00.222Z,103203.47
2023-05-06T07:01:28.154Z,103196.69
2023-05-06T07:03:57.530Z,103198.38
2023-05-06T07:06:25.611Z,103204.56
2023-05-06T07:08:53.560Z,103187.25
2023-05-06T07:11:21.474Z,103197.78
2023-05-06T07:13:49.678Z,103201.06
2023-05-06T07:16:17.635Z,103183.16
2023-05-06T07:18:45.866Z,103195.88
2023-05-06T07:21:15.537Z,103195.19
2023-05-06T07:23:43.477Z,103192.69
2023-05-06T07:26:11.455Z,103193.53
2023-05-06T07:28:39.516Z,103192.66
2023-05-06T07:31:07.509Z,103184.91
2023-05-06T07:33:35.522Z,103190.97
2023-05-06T07:36:03.569Z,103196.13
2023-05-06T07:38:33.080Z,103185.81
2023-05-06T07:41:01.044Z,103184.97
2023-05-06T07:43:29.147Z,103188.38
2023-05-06T07:46:02.832Z,103197.00
2023-05-06T07:48:31.588Z,103200.44
2023-05-06T07:51:00.019Z,103192.69
2023-05-06T07:53:28.542Z,103188.41
2023-05-06T07:56:02.411Z,103188.38
2023-05-06T07:58:30.926Z,103187.53
2023-05-06T08:00:59.075Z,103190.09
2023-05-06T08:03:27.602Z,103188.34
2023-05-06T08:05:55.987Z,103184.94
2023-05-06T08:08:27.895Z,103173.75
2023-05-06T08:10:58.826Z,103184.09
2023-05-06T08:13:28.180Z,103176.34
2023-05-06T08:15:56.917Z,103179.72
2023-05-06T08:18:24.966Z,103176.25
2023-05-06T08:20:53.100Z,103175.38
2023-05-06T08:23:21.866Z,103165.94
2023-05-06T08:25:49.890Z,103170.34
2023-05-06T08:28:19.429Z,103173.69
2023-05-06T08:30:48.624Z,103166.00
2023-05-06T08:33:16.695Z,103160.75
2023-05-06T08:35:44.938Z,103169.25
2023-05-06T08:38:13.106Z,103165.06
2023-05-06T08:40:44.981Z,103163.25
2023-05-06T08:43:15.101Z,103133.19
2023-05-06T08:45:44.427Z,103165.91
2023-05-06T08:48:12.437Z,103164.06
2023-05-06T08:50:43.575Z,103168.13
2023-05-06T08:53:13.201Z,103166.69
2023-05-06T08:55:42.415Z,103158.13
2023-05-06T08:58:12.931Z,103158.88
2023-05-06T09:00:40.934Z,103157.63
2023-05-06T09:03:10.452Z,103156.09
2023-05-06T09:05:38.476Z,103149.09
2023-05-06T09:08:06.760Z,103149.72
2023-05-06T09:10:43.993Z,103127.28
2023-05-06T09:13:14.046Z,103147.91
2023-05-06T09:15:42.981Z,103103.44
2023-05-06T09:18:12.808Z,103136.41
2023-05-06T09:20:43.010Z,103140.47
2023-05-06T09:23:15.440Z,103148.34
2023-05-06T09:25:44.667Z,103155.19
2023-05-06T09:28:13.750Z,103138.72
2023-05-06T09:30:42.682Z,103141.28
2023-05-06T09:33:33.721Z,103136.53
2023-05-06T09:36:03.068Z,103135.88
2023-05-06T09:38:31.018Z,103130.66
2023-05-06T09:41:30.705Z,103129.16
2023-05-06T09:44:02.487Z,103122.84
2023-05-06T09:46:31.522Z,103123.38
2023-05-06T09:49:01.652Z,103120.25
2023-05-06T09:51:29.556Z,103124.31
2023-05-06T09:53:58.413Z,103121.94
2023-05-06T09:56:27.189Z,103112.50
2023-05-06T09:58:57.026Z,103109.78
2023-05-06T10:01:37.206Z,103106.94
2023-05-06T10:04:11.193Z,103100.75
2023-05-06T10:06:41.832Z,103099.53
2023-05-06T10:09:10.480Z,103037.91
2023-05-06T10:11:38.657Z,103087.50
2023-05-06T10:14:08.389Z,103097.50
2023-05-06T10:16:40.170Z,103102.81
2023-05-06T10:19:10.224Z,103090.97
2023-05-06T10:21:41.565Z,103086.34
2023-05-06T10:24:14.783Z,103024.44
2023-05-06T10:26:47.853Z,103044.63
2023-05-06T10:29:16.200Z,103074.53
2023-05-06T10:31:49.528Z,103063.41
2023-05-06T10:34:23.543Z,103064.94
2023-05-06T10:36:56.620Z,103059.38
2023-05-06T10:39:25.546Z,103060.03
2023-05-06T10:41:53.756Z,103045.69
2023-05-06T10:44:59.805Z,103056.03
2023-05-06T10:47:28.163Z,103044.31
2023-05-06T10:50:27.916Z,103038.28
2023-05-06T10:52:57.101Z,103022.69
2023-05-06T10:55:30.596Z,102974.72
2023-05-06T10:58:03.665Z,103044.81
2023-05-06T11:00:36.010Z,103030.94
2023-05-06T11:03:09.986Z,103009.63
2023-05-06T11:05:50.102Z,103039.13
2023-05-06T11:08:23.965Z,103032.16
2023-05-06T11:10:52.341Z,103031.03
2023-05-06T11:13:26.305Z,103031.97
2023-05-06T11:15:55.114Z,102965.81
2023-05-06T11:18:42.712Z,103032.28
2023-05-06T11:21:42.793Z,103018.13
2023-05-06T11:24:12.965Z,103013.84
2023-05-06T11:26:44.881Z,102973.72
2023-05-06T11:29:13.063Z,103007.13
2023-05-06T11:31:43.878Z,103015.88
2023-05-06T11:34:14.513Z,103009.50
2023-05-06T11:36:52.333Z,103011.06
2023-05-06T11:39:21.239Z,103011.16
2023-05-06T11:41:49.170Z,103015.84
2023-05-06T11:44:37.150Z,103018.00
2023-05-06T11:47:06.387Z,103013.38
2023-05-06T11:49:39.792Z,103005.13
2023-05-06T11:52:09.373Z,103005.06
2023-05-06T11:54:39.758Z,103003.81
2023-05-06T11:57:08.224Z,102967.91
2023-05-06T11:59:38.328Z,103004.53
2023-05-06T12:02:07.943Z,103005.22
2023-05-06T12:04:41.399Z,103008.00
2023-05-06T12:07:13.168Z,103011.50
2023-05-06T12:09:43.711Z,103003.75
2023-05-06T12:12:13.638Z,103000.19
2023-05-06T12:14:41.709Z,102999.72
2023-05-06T12:17:10.188Z,102990.47
2023-05-06T12:19:40.834Z,102998.13
2023-05-06T12:22:21.340Z,102985.28
2023-05-06T12:24:49.996Z,102985.72
2023-05-06T12:27:33.123Z,102986.16
2023-05-06T12:30:02.616Z,102977.88
2023-05-06T12:32:31.805Z,102978.28
2023-05-06T12:35:01.048Z,102990.88
2023-05-06T12:37:31.188Z,102986.13
2023-05-06T12:39:59.639Z,102990.31
2023-05-06T12:42:28.350Z,102989.44
2023-05-06T12:44:56.368Z,102981.09
2023-05-06T12:47:25.937Z,102978.03
2023-05-06T12:49:55.648Z,102973.66
2023-05-06T12:52:25.156Z,102983.59
2023-05-06T12:54:54.592Z,102981.34
2023-05-06T12:57:23.025Z,102975.31
2023-05-06T12:59:51.274Z,102975.38
2023-05-06T13:02:19.578Z,102945.22
2023-05-06T13:04:47.677Z,102967.97
2023-05-06T13:07:15.587Z,102970.34
2023-05-06T13:09:44.650Z,102969.44
2023-05-06T13:12:14.266Z,102963.34
2023-05-06T13:14:42.164Z,102969.56
2023-05-06T13:17:10.189Z,102973.72
2023-05-06T13:19:38.254Z,102983.94
2023-05-06T13:22:06.120Z,102974.13
2023-05-06T13:24:34.158Z,102974.94
2023-05-06T13:27:02.321Z,102967.81
2023-05-06T13:29:31.989Z,102969.84
2023-05-06T13:32:00.812Z,102966.19
2023-05-06T13:34:28.817Z,102961.78
2023-05-06T13:36:59.069Z,102967.94
2023-05-06T13:39:27.216Z,102967.91
2023-05-06T13:41:55.313Z,102970.31
2023-05-06T13:44:24.565Z,102965.28
2023-05-06T13:46:53.983Z,102972.22
2023-05-06T13:49:22.032Z,102966.63
2023-05-06T13:51:49.961Z,102968.31
2023-05-06T13:54:18.111Z,102939.34
2023-05-06T13:56:46.154Z,102961.47
2023-05-06T13:59:14.163Z,102962.34
2023-05-06T14:01:43.104Z,102972.81
2023-05-06T14:04:12.552Z,102946.06
2023-05-06T14:06:40.674Z,102963.47
2023-05-06T14:09:09.212Z,102965.34
2023-05-06T14:11:37.490Z,102961.34
2023-05-06T14:14:06.433Z,102972.13
2023-05-06T14:16:34.585Z,102932.91
2023-05-06T14:19:02.610Z,102961.34
2023-05-06T14:21:33.071Z,102956.66
2023-05-06T14:24:01.142Z,102960.81
2023-05-06T14:26:29.191Z,102955.16
2023-05-06T14:28:57.111Z,102960.94
2023-05-06T14:31:25.157Z,102958.66
2023-05-06T14:33:53.300Z,102960.19
2023-05-06T14:36:21.740Z,102957.25
2023-05-06T14:38:51.220Z,102948.13
2023-05-06T14:41:19.149Z,102928.44
2023-05-06T14:43:47.017Z,102952.31
2023-05-06T14:46:15.923Z,102924.66
2023-05-06T14:48:45.571Z,102941.19
2023-05-06T14:51:13.482Z,102940.44
2023-05-06T14:53:41.466Z,102944.41
2023-05-06T14:56:11.646Z,102941.19
2023-05-06T14:58:40.291Z,102936.88
2023-05-06T15:01:08.425Z,102939.53
2023-05-06T15:03:37.283Z,102914.19
2023-05-06T15:06:06.153Z,102909.34
2023-05-06T15:08:34.614Z,102942.31
2023-05-06T15:11:04.275Z,102932.88
2023-05-06T15:13:33.870Z,102939.78
2023-05-06T15:16:01.941Z,102924.53
2023-05-06T15:18:30.183Z,102927.25
2023-05-06T15:21:01.477Z,102922.75
2023-05-06T15:23:29.596Z,102916.47
2023-05-06T15:25:58.571Z,102914.28
2023-05-06T15:28:26.829Z,102904.66
2023-05-06T15:30:56.239Z,102924.66
2023-05-06T15:33:24.461Z,102923.34
2023-05-06T15:35:52.656Z,102909.28
2023-05-06T15:38:20.709Z,102924.72
2023-05-06T15:40:52.226Z,102922.19
2023-05-06T15:43:24.067Z,102926.44
2023-05-06T15:45:55.506Z,102927.84
2023-05-06T15:48:25.221Z,102922.81
2023-05-06T15:50:53.187Z,102924.53
2023-05-06T15:53:24.198Z,102925.09
2023-05-06T15:55:57.177Z,102879.81
2023-05-06T15:58:26.172Z,102924.38
2023-05-06T16:00:54.268Z,102911.56
2023-05-06T16:03:22.281Z,102914.03
2023-05-06T16:05:54.938Z,102918.91
2023-05-06T16:08:22.919Z,102908.97
2023-05-06T16:10:52.107Z,102914.78
2023-05-06T16:13:21.324Z,102915.88
2023-05-06T16:15:50.284Z,102912.63
2023-05-06T16:18:18.592Z,102883.88
2023-05-06T16:20:46.874Z,102913.75
2023-05-06T16:23:16.797Z,102919.53
2023-05-06T16:25:44.828Z,102913.38
2023-05-06T16:28:12.917Z,102903.53
2023-05-06T16:30:44.568Z,102915.41
2023-05-06T16:33:13.298Z,102914.66
2023-05-06T16:35:41.693Z,102916.84
2023-05-06T16:38:10.078Z,102901.56
2023-05-06T16:40:54.962Z,102880.19
2023-05-06T16:43:22.891Z,102918.72
2023-05-06T16:45:50.757Z,102918.81
2023-05-06T16:48:18.905Z,102924.97
2023-05-06T16:50:46.886Z,102924.06
2023-05-06T16:53:15.829Z,102927.78
2023-05-06T16:55:47.896Z,102933.38
2023-05-06T16:58:17.317Z,102927.66
2023-05-06T17:00:46.633Z,102927.53
2023-05-06T17:03:14.891Z,102902.69
2023-05-06T17:05:42.894Z,102941.91
2023-05-06T17:08:10.945Z,102934.31
2023-05-06T17:10:39.034Z,102938.69
2023-05-06T17:13:07.106Z,102931.16
2023-05-06T17:15:36.577Z,102935.50
2023-05-06T17:18:04.884Z,102933.84
2023-05-06T17:20:40.670Z,102940.72
2023-05-06T17:23:16.005Z,102937.28
2023-05-06T17:25:44.009Z,102946.75
2023-05-06T17:28:12.239Z,102944.19
2023-05-06T17:30:41.759Z,102908.09
2023-05-06T17:33:09.874Z,102945.88
2023-05-06T17:35:38.042Z,102946.75
2023-05-06T17:38:06.301Z,102950.16
2023-05-06T17:40:34.363Z,102949.31
2023-05-06T17:43:02.273Z,102948.44
2023-05-06T17:45:32.201Z,102942.44
2023-05-06T17:48:01.659Z,102950.19
2023-05-06T17:50:29.651Z,102946.75
2023-05-06T17:52:57.684Z,102949.31
2023-05-06T17:55:25.923Z,102947.56
2023-05-06T17:57:54.201Z,102948.44
2023-05-06T18:00:22.880Z,102915.75
2023-05-06T18:02:50.944Z,102951.78
2023-05-06T18:05:21.775Z,102950.06
2023-05-06T18:07:49.848Z,102945.69
2023-05-06T18:10:18.164Z,102956.75
2023-05-06T18:12:46.281Z,102930.94
2023-05-06T18:15:15.615Z,102947.25
2023-05-06T18:17:43.671Z,102958.31
2023-05-06T18:20:12.824Z,102953.91
2023-05-06T18:22:44.705Z,102946.16
2023-05-06T18:25:12.912Z,102948.66
2023-05-06T18:27:41.170Z,102942.38
2023-05-06T18:30:09.748Z,102956.28
2023-05-06T18:32:37.762Z,102947.44
2023-05-06T18:35:05.983Z,102952.56
2023-05-06T18:37:34.672Z,102911.00
2023-05-06T18:40:04.634Z,102955.59
2023-05-06T18:42:33.847Z,102947.94
2023-05-06T18:45:04.761Z,102956.31
2023-05-06T18:47:33.224Z,102954.38
2023-05-06T18:50:01.206Z,102958.56
2023-05-06T18:52:29.347Z,102881.69
2023-05-06T18:54:57.286Z,102964.25
2023-05-06T18:57:27.084Z,102962.25
2023-05-06T18:59:55.266Z,102928.31
2023-05-06T19:02:23.296Z,102968.03
2023-05-06T19:04:51.372Z,102963.56
2023-05-06T19:07:19.637Z,102966.16
2023-05-06T19:09:47.646Z,102963.44
2023-05-06T19:12:16.257Z,102954.25
2023-05-06T19:14:45.767Z,102960.97
2023-05-06T19:17:14.360Z,102968.31
2023-05-06T19:19:42.465Z,102971.44
2023-05-06T19:22:10.496Z,102965.31
2023-05-06T19:24:38.434Z,102967.81
2023-05-06T19:27:06.504Z,102961.06
2023-05-06T19:29:34.461Z,102966.03
2023-05-06T19:32:03.989Z,102962.63
2023-05-06T19:34:32.104Z,102968.97
2023-05-06T19:37:00.163Z,102966.75
2023-05-06T19:39:28.151Z,102972.34
2023-05-06T19:41:56.220Z,102967.31
2023-05-06T19:44:24.253Z,102965.50
2023-05-06T19:46:55.306Z,102970.69
2023-05-06T19:49:24.780Z,102964.03
2023-05-06T19:51:52.833Z,102968.75
2023-05-06T19:54:23.781Z,102969.28
2023-05-06T19:56:51.910Z,102976.81
2023-05-06T19:59:19.800Z,102968.84
2023-05-06T20:01:47.819Z,102967.31
2023-05-06T20:04:16.056Z,102971.19
2023-05-06T20:06:46.261Z,102967.13
2023-05-06T20:09:14.146Z,102932.03
2023-05-06T20:11:42.188Z,102968.91
2023-05-06T20:14:10.307Z,102911.00
2023-05-06T20:16:38.949Z,102951.75
2023-05-06T20:19:07.778Z,102960.84
2023-05-06T20:21:35.963Z,102968.31
2023-05-06T20:24:07.347Z,102960.63
2023-05-06T20:26:35.462Z,102962.59
2023-05-06T20:29:03.391Z,102965.44
2023-05-06T20:31:31.348Z,102944.38
2023-05-06T20:33:59.602Z,102963.63
2023-05-06T20:36:28.053Z,102966.41
2023-05-06T20:38:56.019Z,102972.03
2023-05-06T20:41:25.476Z,102966.22
2023-05-06T20:43:54.066Z,102970.72
2023-05-06T20:46:22.052Z,102961.94
2023-05-06T20:48:51.462Z,102968.72
2023-05-06T20:51:19.975Z,102965.72
2023-05-06T20:53:48.217Z,102965.09
2023-05-06T20:56:21.029Z,102940.63
2023-05-06T20:58:50.470Z,102967.88
2023-05-06T21:01:18.808Z,102976.28
2023-05-06T21:03:47.442Z,102927.69
2023-05-06T21:06:15.878Z,102967.09
2023-05-06T21:08:43.973Z,102970.81
2023-05-06T21:11:11.996Z,102971.75
2023-05-06T21:13:40.790Z,102964.50
2023-05-06T21:16:10.312Z,102966.69
2023-05-06T21:18:38.578Z,102971.56
2023-05-06T21:21:06.591Z,102974.53
2023-05-06T21:23:35.440Z,102960.59
2023-05-06T21:26:03.615Z,102973.66
2023-05-06T21:28:31.488Z,102973.22
2023-05-06T21:30:59.396Z,102973.53
2023-05-06T21:33:28.979Z,102978.81
2023-05-06T21:35:59.669Z,102968.97
2023-05-06T21:38:28.018Z,102974.53
2023-05-06T21:40:56.190Z,102972.34
2023-05-06T21:43:24.190Z,102967.38
2023-05-06T21:45:52.337Z,102973.47
2023-05-06T21:48:20.316Z,102975.28
2023-05-06T21:50:49.676Z,102970.03
2023-05-06T21:53:17.789Z,102973.94
2023-05-06T21:55:45.804Z,102966.53
2023-05-06T21:58:13.771Z,102922.72
2023-05-06T22:00:42.071Z,102955.06
2023-05-06T22:03:10.302Z,102960.38
2023-05-06T22:05:40.064Z,102964.13
2023-05-06T22:08:09.478Z,102965.19
2023-05-06T22:10:37.484Z,102963.84
2023-05-06T22:13:05.560Z,102962.84
2023-05-06T22:15:33.657Z,102960.88
2023-05-06T22:18:01.821Z,102965.75
2023-05-06T22:20:30.696Z,102964.44
2023-05-06T22:22:58.657Z,102965.06
2023-05-06T22:25:28.121Z,102973.25
2023-05-06T22:27:56.045Z,102972.25
2023-05-06T22:30:24.008Z,102969.56
2023-05-06T22:32:52.193Z,102964.66
2023-05-06T22:35:20.316Z,102964.19
2023-05-06T22:37:48.282Z,102965.53
2023-05-06T22:40:16.369Z,102963.84
2023-05-06T22:42:46.087Z,102963.53
2023-05-06T22:45:14.207Z,102971.47
2023-05-06T22:47:42.401Z,102967.69
2023-05-06T22:50:11.585Z,102971.16
2023-05-06T22:52:39.728Z,102925.28
2023-05-06T22:55:09.907Z,102977.41
2023-05-06T22:57:38.173Z,102977.88
2023-05-06T23:00:12.695Z,102983.16
2023-05-06T23:02:40.969Z,102971.44
2023-05-06T23:05:09.561Z,102978.66
2023-05-06T23:07:37.938Z,102978.53
2023-05-06T23:10:06.762Z,102981.66
2023-05-06T23:12:35.313Z,102980.06
2023-05-06T23:15:03.729Z,102980.59
2023-05-06T23:17:33.161Z,102979.75
2023-05-06T23:20:02.171Z,102975.19
2023-05-06T23:22:30.475Z,102982.44
2023-05-06T23:24:58.482Z,102989.34
2023-05-06T23:27:26.434Z,102986.59
2023-05-06T23:29:54.451Z,102986.94
2023-05-06T23:32:22.514Z,102985.31
2023-05-06T23:34:52.647Z,102977.41
2023-05-06T23:37:20.671Z,102980.56
2023-05-06T23:39:48.655Z,102991.69
2023-05-06T23:42:16.605Z,102986.47
2023-05-06T23:44:44.676Z,102988.19
2023-05-06T23:47:12.777Z,102984.22
2023-05-06T23:49:40.824Z,102984.72
2023-05-06T23:52:10.314Z,102980.09
2023-05-06T23:54:38.837Z,102953.63
2023-05-06T23:57:06.954Z,102986.06
2023-05-06T23:59:35.093Z,102981.66
